createdAt,value
2019-03-04T00:02:29.150Z,0.20
2019-03-04T00:05:09.609Z,0.00
2019-03-04T00:07:50.636Z,0.00
2019-03-04T00:10:31.515Z,0.23
2019-03-04T00:13:12.257Z,0.00
2019-03-04T00:15:53.216Z,0.00
2019-03-04T00:18:33.885Z,0.00
2019-03-04T00:21:14.759Z,0.00
2019-03-04T00:23:55.498Z,0.00
2019-03-04T00:26:36.606Z,0.00
2019-03-04T00:29:05.647Z,0.00
2019-03-04T00:31:53.818Z,0.00
2019-03-04T00:34:34.917Z,0.00
2019-03-04T00:37:15.639Z,0.00
2019-03-04T00:39:56.398Z,0.17
2019-03-04T00:42:37.035Z,0.30
2019-03-04T00:45:17.705Z,0.00
2019-03-04T00:47:58.710Z,0.00
2019-03-04T00:50:39.400Z,0.00
2019-03-04T00:53:20.487Z,0.00
2019-03-04T00:56:01.041Z,0.00
2019-03-04T00:58:41.817Z,0.00
2019-03-04T01:01:23.129Z,0.10
2019-03-04T01:04:03.948Z,0.00
2019-03-04T01:06:44.799Z,0.10
2019-03-04T01:09:25.601Z,0.00
2019-03-04T01:12:06.587Z,0.00
2019-03-04T01:14:47.280Z,0.00
2019-03-04T01:17:27.757Z,0.00
2019-03-04T01:20:08.757Z,0.10
2019-03-04T01:22:49.609Z,0.00
2019-03-04T01:25:30.521Z,0.00
2019-03-04T01:28:11.534Z,0.10
2019-03-04T01:30:40.501Z,0.00
2019-03-04T01:33:28.685Z,0.00
2019-03-04T01:36:09.784Z,0.00
2019-03-04T01:38:50.997Z,0.00
2019-03-04T01:41:31.532Z,0.00
2019-03-04T01:44:13.197Z,0.00
2019-03-04T01:46:54.064Z,0.00
2019-03-04T01:52:15.119Z,0.00
2019-03-04T01:54:56.337Z,0.00
2019-03-04T01:57:37.573Z,0.00
2019-03-04T02:00:18.839Z,0.00
2019-03-04T02:02:48.008Z,0.13
2019-03-04T02:08:32.596Z,0.00
2019-03-04T02:11:13.466Z,0.00
2019-03-04T02:13:54.189Z,0.00
2019-03-04T02:16:35.138Z,0.00
2019-03-04T02:19:15.957Z,0.00
2019-03-04T02:21:56.781Z,0.00
2019-03-04T02:24:37.680Z,0.00
2019-03-04T02:27:21.806Z,0.00
2019-03-04T02:30:02.807Z,0.00
2019-03-04T02:32:43.360Z,0.00
2019-03-04T02:35:24.278Z,0.00
2019-03-04T02:38:05.293Z,0.00
2019-03-04T02:40:43.968Z,0.00
2019-03-04T02:43:25.372Z,0.00
2019-03-04T02:46:06.158Z,0.27
2019-03-04T02:48:49.631Z,0.00
2019-03-04T02:51:30.673Z,0.00
2019-03-04T02:54:11.552Z,0.00
2019-03-04T02:56:52.584Z,0.00
2019-03-04T02:59:33.344Z,0.00
2019-03-04T03:02:14.058Z,0.00
2019-03-04T03:04:55.193Z,0.00
2019-03-04T03:07:36.217Z,0.00
2019-03-04T03:10:17.302Z,0.00
2019-03-04T03:12:58.405Z,0.00
2019-03-04T03:15:39.228Z,0.00
2019-03-04T03:18:20.024Z,0.27
2019-03-04T03:21:00.862Z,0.00
2019-03-04T03:23:41.891Z,0.17
2019-03-04T03:26:22.768Z,0.00
2019-03-04T03:29:03.473Z,0.00
2019-03-04T03:31:44.083Z,0.00
2019-03-04T03:34:24.861Z,0.00
2019-03-04T03:37:05.644Z,0.00
2019-03-04T03:39:46.422Z,0.00
2019-03-04T03:42:27.125Z,0.00
2019-03-04T03:45:07.752Z,0.10
2019-03-04T03:47:48.651Z,0.40
2019-03-04T03:50:29.523Z,0.00
2019-03-04T03:53:10.294Z,0.00
2019-03-04T03:55:51.269Z,0.00
2019-03-04T03:58:32.319Z,0.20
2019-03-04T04:01:13.565Z,0.00
2019-03-04T04:03:54.465Z,0.00
2019-03-04T04:06:35.565Z,0.00
2019-03-04T04:09:16.460Z,0.03
2019-03-04T04:11:58.222Z,0.00
2019-03-04T04:14:38.674Z,0.00
2019-03-04T04:17:19.721Z,0.00
2019-03-04T04:20:00.477Z,0.00
2019-03-04T04:22:41.730Z,0.30
2019-03-04T04:25:23.053Z,0.10
2019-03-04T04:28:05.890Z,0.00
2019-03-04T04:30:46.778Z,0.10
2019-03-04T04:33:28.092Z,0.00
2019-03-04T04:36:06.646Z,0.00
2019-03-04T04:38:46.077Z,0.10
2019-03-04T04:41:26.908Z,0.00
2019-03-04T04:43:55.989Z,0.00
2019-03-04T04:46:46.026Z,0.00
2019-03-04T04:49:34.363Z,0.00
2019-03-04T04:52:14.668Z,0.00
2019-03-04T04:54:45.777Z,0.00
2019-03-04T04:57:33.959Z,0.30
2019-03-04T05:00:15.274Z,0.00
2019-03-04T05:02:56.546Z,0.00
2019-03-04T05:05:37.201Z,0.00
2019-03-04T05:08:18.016Z,0.23
2019-03-04T05:10:58.987Z,0.03
2019-03-04T05:13:39.849Z,0.00
2019-03-04T05:16:23.356Z,0.00
2019-03-04T05:19:04.619Z,0.00
2019-03-04T05:21:45.912Z,0.00
2019-03-04T05:24:27.069Z,0.00
2019-03-04T05:27:07.877Z,0.30
2019-03-04T05:29:48.787Z,0.00
2019-03-04T05:32:29.608Z,0.10
2019-03-04T05:35:10.466Z,0.00
2019-03-04T05:37:51.246Z,0.00
2019-03-04T05:40:32.349Z,0.10
2019-03-04T05:43:13.498Z,0.00
2019-03-04T05:45:54.473Z,0.00
2019-03-04T05:48:35.403Z,0.13
2019-03-04T05:51:16.167Z,0.00
2019-03-04T05:53:57.028Z,0.00
2019-03-04T05:56:37.818Z,0.00
2019-03-04T05:59:20.018Z,0.00
2019-03-04T06:02:01.226Z,0.00
2019-03-04T06:04:41.877Z,0.00
2019-03-04T06:07:41.755Z,0.20
2019-03-04T06:10:22.893Z,0.00
2019-03-04T06:13:03.751Z,0.00
2019-03-04T06:15:44.684Z,0.00
2019-03-04T06:18:25.424Z,0.00
2019-03-04T06:21:06.453Z,0.07
2019-03-04T06:23:47.453Z,0.30
2019-03-04T06:26:28.302Z,0.60
2019-03-04T06:29:08.885Z,0.40
2019-03-04T06:31:49.559Z,0.20
2019-03-04T06:34:30.544Z,0.13
2019-03-04T06:37:11.339Z,0.00
2019-03-04T06:39:52.112Z,0.50
2019-03-04T06:42:33.195Z,0.20
2019-03-04T06:45:13.664Z,0.30
2019-03-04T06:47:54.917Z,0.30
2019-03-04T06:50:35.586Z,0.00
2019-03-04T06:53:16.415Z,0.03
2019-03-04T06:55:57.125Z,0.00
2019-03-04T06:58:38.069Z,0.30
2019-03-04T07:01:18.727Z,0.03
2019-03-04T07:04:02.054Z,0.20
2019-03-04T07:06:42.924Z,0.03
2019-03-04T07:09:23.703Z,0.33
2019-03-04T07:12:04.691Z,0.47
2019-03-04T07:14:45.518Z,0.27
2019-03-04T07:17:26.426Z,0.07
2019-03-04T07:20:07.689Z,0.50
2019-03-04T07:22:48.577Z,0.30
2019-03-04T07:25:29.505Z,0.40
2019-03-04T07:28:10.281Z,0.13
2019-03-04T07:30:51.105Z,0.47
2019-03-04T07:33:31.744Z,0.27
2019-03-04T07:36:12.508Z,0.30
2019-03-04T07:38:53.401Z,0.40
2019-03-04T07:41:34.289Z,0.60
2019-03-04T07:44:15.178Z,0.43
2019-03-04T07:46:55.814Z,0.50
2019-03-04T07:49:36.357Z,0.77
2019-03-04T07:52:17.205Z,0.50
2019-03-04T07:54:57.975Z,0.60
2019-03-04T07:57:39.101Z,0.40
2019-03-04T08:00:19.786Z,0.67
2019-03-04T08:03:00.578Z,1.07
2019-03-04T08:05:40.992Z,1.03
2019-03-04T08:08:21.934Z,0.83
2019-03-04T08:11:03.035Z,1.00
2019-03-04T08:13:43.527Z,0.80
2019-03-04T08:16:24.381Z,0.93
2019-03-04T08:19:05.575Z,0.47
2019-03-04T08:21:34.611Z,0.50
2019-03-04T08:24:22.706Z,1.07
2019-03-04T08:27:10.880Z,0.87
2019-03-04T08:29:52.117Z,0.50
2019-03-04T08:32:32.974Z,0.73
2019-03-04T08:35:13.843Z,0.70
2019-03-04T08:37:55.003Z,0.67
2019-03-04T08:40:35.810Z,0.40
2019-03-04T08:43:16.739Z,0.47
2019-03-04T08:45:57.852Z,0.93
2019-03-04T08:48:38.677Z,0.60
2019-03-04T08:51:19.629Z,0.60
2019-03-04T08:54:00.490Z,0.83
2019-03-04T08:56:41.451Z,0.60
2019-03-04T08:59:22.497Z,1.10
2019-03-04T09:02:03.225Z,0.67
2019-03-04T09:04:44.079Z,1.30
2019-03-04T09:07:24.923Z,0.93
2019-03-04T09:10:05.427Z,0.83
2019-03-04T09:12:46.264Z,1.10
2019-03-04T09:15:26.971Z,0.67
2019-03-04T09:18:07.609Z,0.40
2019-03-04T09:20:48.520Z,0.43
2019-03-04T09:23:29.254Z,0.30
2019-03-04T09:26:10.222Z,0.57
2019-03-04T09:28:50.916Z,0.60
2019-03-04T09:31:34.818Z,0.50
2019-03-04T09:34:15.494Z,0.77
2019-03-04T09:36:56.193Z,0.40
2019-03-04T09:39:36.992Z,0.57
2019-03-04T09:42:19.778Z,0.37
2019-03-04T09:45:00.338Z,0.70
2019-03-04T09:47:40.702Z,0.30
2019-03-04T09:50:21.650Z,0.43
2019-03-04T09:53:06.212Z,1.17
2019-03-04T09:55:47.434Z,0.27
2019-03-04T09:58:28.263Z,0.30
2019-03-04T10:01:09.205Z,0.33
2019-03-04T10:03:50.125Z,0.20
2019-03-04T10:06:30.855Z,0.37
2019-03-04T10:09:11.664Z,0.37
2019-03-04T10:11:52.496Z,0.57
2019-03-04T10:14:33.311Z,0.50
2019-03-04T10:17:14.163Z,0.30
2019-03-04T10:19:54.793Z,0.93
2019-03-04T10:22:35.190Z,0.20
2019-03-04T10:25:16.022Z,0.70
2019-03-04T10:27:56.998Z,0.20
2019-03-04T10:30:37.630Z,0.20
2019-03-04T10:33:18.360Z,0.33
2019-03-04T10:35:59.072Z,0.37
2019-03-04T10:38:42.921Z,0.70
2019-03-04T10:41:22.834Z,0.10
2019-03-04T10:44:03.499Z,0.10
2019-03-04T10:46:44.598Z,0.17
2019-03-04T10:49:25.368Z,0.13
2019-03-04T10:52:06.469Z,0.27
2019-03-04T10:54:47.203Z,0.23
2019-03-04T10:57:28.102Z,0.30
2019-03-04T11:00:08.908Z,0.00
2019-03-04T11:02:49.963Z,0.20
2019-03-04T11:05:30.695Z,0.00
2019-03-04T11:08:11.824Z,0.20
2019-03-04T11:10:52.441Z,0.00
2019-03-04T11:13:32.840Z,0.10
2019-03-04T11:16:14.123Z,0.00
2019-03-04T11:18:54.920Z,0.00
2019-03-04T11:21:36.495Z,0.00
2019-03-04T11:24:17.489Z,0.00
2019-03-04T11:26:58.468Z,0.00
2019-03-04T11:29:42.493Z,0.00
2019-03-04T11:32:23.604Z,0.00
2019-03-04T11:35:04.592Z,0.00
2019-03-04T11:37:45.515Z,0.10
2019-03-04T11:40:31.832Z,0.00
2019-03-04T11:43:00.876Z,0.00
2019-03-04T11:45:49.129Z,0.00
2019-03-04T11:48:37.305Z,0.00
2019-03-04T11:51:06.349Z,0.00
2019-03-04T11:53:54.515Z,0.00
2019-03-04T11:56:35.172Z,0.00
2019-03-04T11:59:16.125Z,0.00
2019-03-04T12:01:57.105Z,0.00
2019-03-04T12:04:38.519Z,0.00
2019-03-04T12:07:19.582Z,0.00
2019-03-04T12:10:01.080Z,0.00
2019-03-04T12:12:41.761Z,0.00
2019-03-04T12:15:22.576Z,0.00
2019-03-04T12:18:03.476Z,0.00
2019-03-04T12:20:47.080Z,0.00
2019-03-04T12:23:27.962Z,0.00
2019-03-04T12:26:08.768Z,0.00
2019-03-04T12:28:49.633Z,0.00
2019-03-04T12:31:34.750Z,0.00
2019-03-04T12:34:24.877Z,0.00
2019-03-04T12:37:05.013Z,0.00
2019-03-04T12:39:45.777Z,0.00
2019-03-04T12:42:21.040Z,0.00
2019-03-04T12:45:10.413Z,0.00
2019-03-04T12:47:51.011Z,0.00
2019-03-04T12:50:31.707Z,0.00
2019-03-04T12:53:12.690Z,0.00
2019-03-04T12:55:53.698Z,0.00
2019-03-04T12:58:34.388Z,0.00
2019-03-04T13:01:15.422Z,0.00
2019-03-04T13:03:56.397Z,0.00
2019-03-04T13:06:37.284Z,0.00
2019-03-04T13:09:18.234Z,0.10
2019-03-04T13:14:41.843Z,0.10
2019-03-04T13:17:22.376Z,0.00
2019-03-04T13:20:03.572Z,0.37
2019-03-04T13:22:44.555Z,0.00
2019-03-04T13:25:25.612Z,0.00
2019-03-04T13:28:08.541Z,0.00
2019-03-04T13:30:49.027Z,0.00
2019-03-04T13:33:30.016Z,0.00
2019-03-04T13:36:12.059Z,0.00
2019-03-04T13:38:53.141Z,0.27
2019-03-04T13:41:33.885Z,0.00
2019-03-04T13:44:14.869Z,0.00
2019-03-04T13:46:55.729Z,0.00
2019-03-04T13:49:36.567Z,0.10
2019-03-04T13:52:17.070Z,0.13
2019-03-04T13:54:57.880Z,0.17
2019-03-04T13:57:38.664Z,0.00
2019-03-04T14:00:20.065Z,0.00
2019-03-04T14:03:00.552Z,0.00
2019-03-04T14:05:41.449Z,0.00
2019-03-04T14:08:22.868Z,0.00
2019-03-04T14:11:04.280Z,0.00
2019-03-04T14:13:44.886Z,0.00
2019-03-04T14:16:25.910Z,0.00
2019-03-04T14:19:06.706Z,0.00
2019-03-04T14:21:47.975Z,0.00
2019-03-04T14:24:28.895Z,0.00
2019-03-04T14:27:09.586Z,0.00
2019-03-04T14:29:50.156Z,0.00
2019-03-04T14:32:31.134Z,0.00
2019-03-04T14:35:11.959Z,0.03
2019-03-04T14:37:52.912Z,0.00
2019-03-04T14:40:33.439Z,0.00
2019-03-04T14:43:14.253Z,0.00
2019-03-04T14:45:55.265Z,0.00
2019-03-04T14:48:38.972Z,0.07
2019-03-04T14:51:19.592Z,0.10
2019-03-04T14:54:00.712Z,0.23
2019-03-04T14:56:41.496Z,0.10
2019-03-04T14:59:22.232Z,0.00
2019-03-04T15:02:03.165Z,0.00
2019-03-04T15:04:44.447Z,0.13
2019-03-04T15:07:25.378Z,0.00
2019-03-04T15:10:06.527Z,0.00
2019-03-04T15:12:47.408Z,0.30
2019-03-04T15:15:28.503Z,0.40
2019-03-04T15:18:09.241Z,0.00
2019-03-04T15:20:50.085Z,0.10
2019-03-04T15:23:30.878Z,0.00
2019-03-04T15:26:11.892Z,0.00
2019-03-04T15:28:52.796Z,0.13
2019-03-04T15:31:33.369Z,0.20
2019-03-04T15:34:14.456Z,0.00
2019-03-04T15:36:55.240Z,0.00
2019-03-04T15:39:35.770Z,0.00
2019-03-04T15:42:16.498Z,0.00
2019-03-04T15:44:57.349Z,0.00
2019-03-04T15:47:38.264Z,0.03
2019-03-04T15:50:19.376Z,0.20
2019-03-04T15:53:00.344Z,0.00
2019-03-04T15:55:41.167Z,0.00
2019-03-04T15:58:22.108Z,0.20
2019-03-04T16:01:04.286Z,0.00
2019-03-04T16:03:45.110Z,0.00
2019-03-04T16:06:25.994Z,0.00
2019-03-04T16:09:06.756Z,0.00
2019-03-04T16:11:47.701Z,0.00
2019-03-04T16:14:28.221Z,0.00
2019-03-04T16:17:08.821Z,0.00
2019-03-04T16:19:49.276Z,0.00
2019-03-04T16:22:29.862Z,0.00
2019-03-04T16:25:10.593Z,0.00
2019-03-04T16:27:51.872Z,0.00
2019-03-04T16:30:32.334Z,0.00
2019-03-04T16:33:13.646Z,0.00
2019-03-04T16:35:54.848Z,0.00
2019-03-04T16:38:35.588Z,0.00
2019-03-04T16:41:16.346Z,0.10
2019-03-04T16:43:57.292Z,0.00
2019-03-04T16:46:37.923Z,0.00
2019-03-04T16:49:06.974Z,0.00
2019-03-04T16:51:55.123Z,0.00
2019-03-04T16:54:36.378Z,0.00
2019-03-04T16:57:16.825Z,0.00
2019-03-04T16:59:57.777Z,0.00
2019-03-04T17:02:39.217Z,0.00
2019-03-04T17:05:20.126Z,0.00
2019-03-04T17:08:01.386Z,0.10
2019-03-04T17:10:42.772Z,0.03
2019-03-04T17:13:23.725Z,0.00
2019-03-04T17:16:06.752Z,0.10
2019-03-04T17:18:47.615Z,0.00
2019-03-04T17:21:28.806Z,0.00
2019-03-04T17:24:09.669Z,0.00
2019-03-04T17:26:50.115Z,0.00
2019-03-04T17:29:30.945Z,0.00
2019-03-04T17:32:11.795Z,0.47
2019-03-04T17:34:52.796Z,0.13
2019-03-04T17:37:35.963Z,0.00
2019-03-04T17:40:16.877Z,0.00
2019-03-04T17:42:57.737Z,0.10
2019-03-04T17:45:38.717Z,0.10
2019-03-04T17:48:19.750Z,0.00
2019-03-04T17:51:00.455Z,0.00
2019-03-04T17:53:41.040Z,0.00
2019-03-04T17:56:21.915Z,0.00
2019-03-04T17:59:02.690Z,0.00
2019-03-04T18:01:43.465Z,0.20
2019-03-04T18:04:24.429Z,0.00
2019-03-04T18:07:05.199Z,0.00
2019-03-04T18:09:45.821Z,0.00
2019-03-04T18:12:26.648Z,0.00
2019-03-04T18:15:07.497Z,0.10
2019-03-04T18:17:48.413Z,0.00
2019-03-04T18:20:34.478Z,0.00
2019-03-04T18:23:11.854Z,0.00
2019-03-04T18:25:52.596Z,0.00
2019-03-04T18:28:33.612Z,0.10
2019-03-04T18:31:14.783Z,0.10
2019-03-04T18:33:55.705Z,0.10
2019-03-04T18:36:36.572Z,0.00
2019-03-04T18:39:17.575Z,0.10
2019-03-04T18:41:58.261Z,0.00
2019-03-04T18:44:39.301Z,0.27
2019-03-04T18:47:20.283Z,0.00
2019-03-04T18:52:38.597Z,0.00
2019-03-04T18:55:19.903Z,0.10
2019-03-04T18:57:48.865Z,0.07
2019-03-04T19:00:37.032Z,0.20
2019-03-04T19:03:18.189Z,0.47
2019-03-04T19:05:59.594Z,0.20
2019-03-04T19:08:40.110Z,0.20
2019-03-04T19:11:20.713Z,0.00
2019-03-04T19:14:01.481Z,0.00
2019-03-04T19:16:42.138Z,0.00
2019-03-04T19:19:23.168Z,0.10
2019-03-04T19:22:03.957Z,0.00
2019-03-04T19:24:44.730Z,0.00
2019-03-04T19:27:25.668Z,0.20
2019-03-04T19:30:06.458Z,0.00
2019-03-04T19:32:47.048Z,0.00
2019-03-04T19:35:28.272Z,0.00
2019-03-04T19:38:09.300Z,0.10
2019-03-04T19:40:50.193Z,0.20
2019-03-04T19:43:33.858Z,0.00
2019-03-04T19:46:14.402Z,0.00
2019-03-04T19:48:55.204Z,0.27
2019-03-04T19:51:36.074Z,0.07
2019-03-04T19:54:16.949Z,0.60
2019-03-04T19:56:57.599Z,0.00
2019-03-04T19:59:38.547Z,0.00
2019-03-04T20:02:19.205Z,0.00
2019-03-04T20:04:59.953Z,0.10
2019-03-04T20:07:41.130Z,0.10
2019-03-04T20:10:22.033Z,0.00
2019-03-04T20:13:03.530Z,0.00
2019-03-04T20:15:44.180Z,0.00
2019-03-04T20:18:25.137Z,0.10
2019-03-04T20:21:05.923Z,0.10
2019-03-04T20:23:46.878Z,0.00
2019-03-04T20:26:27.771Z,0.00
2019-03-04T20:29:08.583Z,0.00
2019-03-04T20:31:49.738Z,0.00
2019-03-04T20:34:30.632Z,0.20
2019-03-04T20:37:11.500Z,0.00
2019-03-04T20:39:52.393Z,0.13
2019-03-04T20:42:33.184Z,0.00
2019-03-04T20:45:14.397Z,0.10
2019-03-04T20:47:54.826Z,0.10
2019-03-04T20:50:35.642Z,0.00
2019-03-04T20:53:16.253Z,0.20
2019-03-04T20:55:57.294Z,0.00
2019-03-04T20:58:38.245Z,0.00
2019-03-04T21:01:19.695Z,0.00
2019-03-04T21:04:00.404Z,0.30
2019-03-04T21:06:41.042Z,0.00
2019-03-04T21:09:21.582Z,0.00
2019-03-04T21:12:02.071Z,0.00
2019-03-04T21:14:43.296Z,0.00
2019-03-04T21:17:23.863Z,0.10
2019-03-04T21:20:04.649Z,0.10
2019-03-04T21:22:45.415Z,0.10
2019-03-04T21:25:26.049Z,0.33
2019-03-04T21:28:06.964Z,0.00
2019-03-04T21:30:47.839Z,0.53
2019-03-04T21:33:28.833Z,0.40
2019-03-04T21:36:09.562Z,0.00
2019-03-04T21:38:50.388Z,0.00
2019-03-04T21:41:31.618Z,0.00
2019-03-04T21:44:12.641Z,0.20
2019-03-04T21:46:53.654Z,0.00
2019-03-04T21:49:34.408Z,0.00
2019-03-04T21:52:20.241Z,0.10
2019-03-04T21:54:57.862Z,0.00
2019-03-04T21:57:38.524Z,0.23
2019-03-04T22:00:20.455Z,0.00
2019-03-04T22:03:01.188Z,0.00
2019-03-04T22:05:49.822Z,0.00
2019-03-04T22:08:24.828Z,0.00
2019-03-04T22:11:06.300Z,0.00
2019-03-04T22:13:47.560Z,0.07
2019-03-04T22:16:28.418Z,0.30
2019-03-04T22:19:09.123Z,0.00
2019-03-04T22:21:50.078Z,0.00
2019-03-04T22:24:30.952Z,0.07
2019-03-04T22:27:11.826Z,0.00
2019-03-04T22:29:52.710Z,0.10
2019-03-04T22:32:33.558Z,0.00
2019-03-04T22:35:16.891Z,0.03
2019-03-04T22:37:56.506Z,0.00
2019-03-04T22:40:37.104Z,0.00
2019-03-04T22:43:17.977Z,0.10
2019-03-04T22:45:58.861Z,0.00
2019-03-04T22:48:39.525Z,0.00
2019-03-04T22:51:20.438Z,0.10
2019-03-04T22:54:01.879Z,0.00
2019-03-04T22:56:43.114Z,0.00
2019-03-04T22:59:23.627Z,0.00
2019-03-04T23:02:06.421Z,0.00
2019-03-04T23:04:47.177Z,0.00
2019-03-04T23:07:27.563Z,0.00
2019-03-04T23:10:08.263Z,0.00
2019-03-04T23:12:49.524Z,0.00
2019-03-04T23:15:32.184Z,0.00
2019-03-04T23:18:13.701Z,0.00
2019-03-04T23:20:54.913Z,0.00
2019-03-04T23:23:35.825Z,0.00
2019-03-04T23:26:16.601Z,0.00
2019-03-04T23:28:57.547Z,0.00
2019-03-04T23:31:38.202Z,0.00
2019-03-04T23:34:18.832Z,0.00
2019-03-04T23:36:59.511Z,0.00
2019-03-04T23:39:39.951Z,0.00
2019-03-04T23:42:20.818Z,0.00
2019-03-04T23:45:01.513Z,0.00
2019-03-04T23:47:42.296Z,0.00
2019-03-04T23:50:23.027Z,0.00
2019-03-04T23:53:04.065Z,0.00
2019-03-04T23:55:45.258Z,0.00
2019-03-04T23:58:26.138Z,0.00
